Terminal Aerodrome Forecast
Issued by NWS Atlanta, GA

Home | Current Version | Previous Version | Text Only | Print | Product List | Glossary On
Versions: 1 2 3 4 5 6 7 8 9 10 11 12 13 14
527
FTUS42 KFFC 220520
TAFCSG
TAF
KCSG 220520Z 2206/2306 VRB03KT P6SM SCT025 BKN045
      TEMPO 2206/2210 5SM BR SCT008 BKN025
     FM221200 02005KT P6SM SCT010 BKN030
     FM221400 02007KT P6SM SCT030 BKN100
     FM221600 01008KT P6SM BKN100
     FM221800 01008KT P6SM BKN250
     FM230500 02005KT P6SM SCT035=

USA.gov is the U.S. government's official web portal to all federal, state and local government web resources and services.